createdAt,value
2022-12-06T00:01:46.071Z,8.00
2022-12-06T00:04:16.742Z,8.00
2022-12-06T00:06:48.423Z,8.00
2022-12-06T00:09:20.920Z,8.00
2022-12-06T00:11:50.025Z,7.90
2022-12-06T00:14:18.725Z,7.90
2022-12-06T00:16:47.387Z,8.00
2022-12-06T00:19:18.155Z,8.00
2022-12-06T00:21:47.439Z,8.00
2022-12-06T00:24:19.915Z,8.00
2022-12-06T00:26:49.728Z,7.90
2022-12-06T00:29:20.985Z,7.90
2022-12-06T00:31:50.679Z,7.90
2022-12-06T00:34:18.899Z,7.90
2022-12-06T00:36:48.933Z,7.90
2022-12-06T00:39:18.126Z,7.90
2022-12-06T00:41:46.421Z,7.90
2022-12-06T00:44:14.697Z,7.90
2022-12-06T00:46:42.878Z,8.00
2022-12-06T00:49:10.929Z,8.00
2022-12-06T00:51:39.706Z,8.00
2022-12-06T00:54:09.016Z,8.00
2022-12-06T00:56:37.922Z,7.90
2022-12-06T00:59:06.451Z,7.90
2022-12-06T01:01:36.463Z,7.90
2022-12-06T01:04:06.547Z,7.90
2022-12-06T01:06:37.336Z,7.90
2022-12-06T01:09:10.193Z,7.80
2022-12-06T01:11:38.697Z,7.90
2022-12-06T01:14:06.728Z,7.90
2022-12-06T01:16:35.338Z,7.90
2022-12-06T01:19:06.477Z,7.90
2022-12-06T01:21:34.904Z,7.90
2022-12-06T01:24:02.936Z,7.80
2022-12-06T01:26:33.368Z,7.90
2022-12-06T01:29:02.849Z,7.90
2022-12-06T01:31:37.588Z,7.90
2022-12-06T01:34:13.138Z,8.00
2022-12-06T01:36:41.490Z,8.00
2022-12-06T01:39:10.885Z,8.00
2022-12-06T01:41:40.196Z,8.10
2022-12-06T01:51:14.378Z,8.10
2022-12-06T01:53:45.655Z,8.10
2022-12-06T01:56:13.952Z,8.10
2022-12-06T01:58:45.837Z,8.10
2022-12-06T02:01:14.055Z,8.10
2022-12-06T02:03:43.806Z,8.10
2022-12-06T02:06:12.502Z,8.10
2022-12-06T02:08:41.621Z,8.10
2022-12-06T02:11:09.638Z,8.20
2022-12-06T02:13:38.972Z,8.20
2022-12-06T02:16:32.847Z,8.20
2022-12-06T02:19:17.976Z,8.20
2022-12-06T02:22:03.155Z,8.30
2022-12-06T02:24:34.209Z,8.20
2022-12-06T02:27:05.983Z,8.20
2022-12-06T02:29:33.838Z,8.10
2022-12-06T02:32:08.817Z,8.10
2022-12-06T02:35:00.568Z,8.10
2022-12-06T02:37:42.493Z,8.10
2022-12-06T02:40:15.644Z,8.00
2022-12-06T02:42:51.579Z,8.00
2022-12-06T02:45:24.220Z,8.10
2022-12-06T02:47:54.674Z,8.00
2022-12-06T02:50:30.377Z,8.10
2022-12-06T02:53:01.360Z,8.10
2022-12-06T02:55:31.037Z,8.10
2022-12-06T02:57:59.762Z,8.10
2022-12-06T03:00:43.911Z,8.10
2022-12-06T03:03:42.217Z,8.00
2022-12-06T03:06:41.424Z,8.00
2022-12-06T03:09:24.924Z,8.00
2022-12-06T03:12:08.888Z,8.00
2022-12-06T03:14:57.744Z,7.90
2022-12-06T03:17:37.795Z,8.00
2022-12-06T03:20:48.944Z,8.00
2022-12-06T03:23:28.186Z,7.90
2022-12-06T03:25:59.953Z,7.90
2022-12-06T03:28:30.327Z,7.90
2022-12-06T03:31:03.294Z,7.90
2022-12-06T03:33:37.752Z,7.80
2022-12-06T03:36:07.672Z,7.80
2022-12-06T03:38:41.850Z,7.80
2022-12-06T03:41:12.628Z,7.70
2022-12-06T03:43:40.591Z,7.70
2022-12-06T03:46:18.714Z,7.60
2022-12-06T03:48:55.967Z,7.60
2022-12-06T03:51:29.595Z,7.60
2022-12-06T03:53:58.911Z,7.60
2022-12-06T03:56:29.027Z,7.50
2022-12-06T03:58:57.041Z,7.50
2022-12-06T04:01:25.114Z,7.50
2022-12-06T04:03:53.321Z,7.60
2022-12-06T04:06:21.330Z,7.60
2022-12-06T04:08:49.376Z,7.50
2022-12-06T04:11:17.387Z,7.60
2022-12-06T04:13:45.717Z,7.60
2022-12-06T04:16:32.811Z,7.60
2022-12-06T04:19:00.790Z,7.60
2022-12-06T04:21:31.608Z,7.60
2022-12-06T04:24:00.494Z,7.50
2022-12-06T04:26:29.091Z,7.40
2022-12-06T04:29:16.211Z,7.40
2022-12-06T04:32:03.233Z,7.40
2022-12-06T04:34:49.985Z,7.30
2022-12-06T04:37:36.665Z,7.40
2022-12-06T04:40:05.677Z,7.40
2022-12-06T04:42:52.564Z,7.30
2022-12-06T04:45:20.897Z,7.30
2022-12-06T04:47:48.905Z,7.30
2022-12-06T04:50:17.385Z,7.20
2022-12-06T04:52:45.754Z,7.20
2022-12-06T04:55:13.730Z,7.30
2022-12-06T04:57:41.841Z,7.30
2022-12-06T05:00:10.455Z,7.30
2022-12-06T05:02:38.645Z,7.30
2022-12-06T05:05:07.419Z,7.30
2022-12-06T05:07:35.898Z,7.30
2022-12-06T05:10:04.365Z,7.40
2022-12-06T05:12:32.317Z,7.30
2022-12-06T05:15:00.273Z,7.30
2022-12-06T05:17:28.519Z,7.30
2022-12-06T05:19:57.025Z,7.40
2022-12-06T05:22:24.913Z,7.40
2022-12-06T05:24:53.039Z,7.30
2022-12-06T05:27:21.469Z,7.30
2022-12-06T05:29:49.657Z,7.30
2022-12-06T05:32:18.405Z,7.30
2022-12-06T05:34:46.297Z,7.30
2022-12-06T05:37:14.352Z,7.30
2022-12-06T05:39:43.114Z,7.40
2022-12-06T05:42:13.455Z,7.30
2022-12-06T05:44:50.234Z,7.20
2022-12-06T05:47:18.133Z,7.50
2022-12-06T05:49:46.348Z,7.40
2022-12-06T05:52:14.256Z,7.00
2022-12-06T05:54:42.579Z,6.90
2022-12-06T05:57:10.470Z,6.90
2022-12-06T05:59:38.573Z,6.80
2022-12-06T06:02:06.635Z,6.60
2022-12-06T06:04:35.094Z,6.60
2022-12-06T06:07:03.465Z,6.60
2022-12-06T06:09:31.587Z,6.60
2022-12-06T06:11:59.776Z,6.70
2022-12-06T06:14:27.826Z,6.70
2022-12-06T06:16:56.159Z,6.70
2022-12-06T06:19:25.102Z,6.70
2022-12-06T06:21:53.241Z,6.70
2022-12-06T06:24:21.773Z,6.70
2022-12-06T06:26:49.866Z,6.70
2022-12-06T06:29:18.245Z,6.50
2022-12-06T06:31:46.636Z,6.50
2022-12-06T06:34:15.408Z,6.30
2022-12-06T06:36:45.862Z,6.30
2022-12-06T06:39:14.499Z,6.30
2022-12-06T06:41:42.550Z,6.60
2022-12-06T06:44:11.339Z,6.70
2022-12-06T06:46:39.357Z,6.90
2022-12-06T06:49:07.667Z,6.90
2022-12-06T06:51:35.604Z,7.00
2022-12-06T06:54:03.839Z,6.90
2022-12-06T06:56:31.822Z,6.90
2022-12-06T06:59:01.082Z,6.80
2022-12-06T07:01:29.733Z,6.70
2022-12-06T07:03:58.823Z,6.90
2022-12-06T07:06:26.716Z,7.20
2022-12-06T07:08:54.685Z,7.20
2022-12-06T07:11:23.691Z,7.30
2022-12-06T07:13:52.898Z,7.30
2022-12-06T07:16:22.014Z,7.40
2022-12-06T07:18:50.585Z,7.50
2022-12-06T07:21:24.549Z,7.50
2022-12-06T07:23:52.639Z,7.50
2022-12-06T07:26:23.432Z,7.50
2022-12-06T07:28:52.846Z,7.50
2022-12-06T07:31:24.006Z,7.70
2022-12-06T07:33:54.574Z,7.70
2022-12-06T07:36:23.592Z,7.90
2022-12-06T07:38:54.612Z,8.00
2022-12-06T07:41:42.759Z,8.10
2022-12-06T07:44:38.549Z,8.20
2022-12-06T07:47:06.693Z,8.30
2022-12-06T07:49:35.333Z,7.50
2022-12-06T07:52:03.865Z,7.30
2022-12-06T07:54:32.712Z,7.30
2022-12-06T07:57:01.307Z,7.30
2022-12-06T07:59:30.661Z,7.40
2022-12-06T08:01:59.578Z,7.70
2022-12-06T08:04:28.179Z,8.10
2022-12-06T08:06:57.847Z,8.60
2022-12-06T08:09:26.361Z,8.60
2022-12-06T08:11:54.784Z,9.30
2022-12-06T08:14:23.596Z,9.20
2022-12-06T08:16:52.351Z,9.10
2022-12-06T08:19:21.124Z,9.50
2022-12-06T08:21:49.056Z,9.90
2022-12-06T08:24:17.420Z,10.00
2022-12-06T08:26:45.933Z,10.20
2022-12-06T08:29:14.848Z,10.50
2022-12-06T08:31:44.284Z,10.80
2022-12-06T08:34:13.743Z,11.10
2022-12-06T08:36:42.569Z,10.70
2022-12-06T08:39:12.763Z,10.50
2022-12-06T08:41:56.090Z,10.50
2022-12-06T08:44:26.189Z,10.60
2022-12-06T08:46:54.603Z,11.00
2022-12-06T08:49:24.120Z,11.10
2022-12-06T08:51:53.789Z,11.80
2022-12-06T08:54:24.857Z,12.00
2022-12-06T08:56:53.280Z,12.30
2022-12-06T08:59:21.729Z,12.40
2022-12-06T09:01:49.906Z,12.50
2022-12-06T09:04:18.906Z,12.60
2022-12-06T09:06:47.435Z,12.90
2022-12-06T09:09:17.984Z,12.80
2022-12-06T09:11:49.291Z,12.70
2022-12-06T09:14:21.831Z,13.00
2022-12-06T09:16:52.590Z,13.10
2022-12-06T09:19:21.277Z,13.50
2022-12-06T09:21:49.777Z,13.60
2022-12-06T09:24:19.237Z,13.60
2022-12-06T09:26:47.747Z,13.80
2022-12-06T09:29:16.640Z,13.60
2022-12-06T09:31:45.125Z,13.40
2022-12-06T09:34:14.200Z,13.50
2022-12-06T09:36:47.799Z,13.90
2022-12-06T09:39:32.940Z,14.10
2022-12-06T09:42:04.139Z,13.90
2022-12-06T09:44:47.911Z,13.90
2022-12-06T09:47:31.358Z,14.10
2022-12-06T09:50:27.396Z,15.10
2022-12-06T09:53:40.465Z,15.60
2022-12-06T09:56:30.979Z,15.70
2022-12-06T09:59:24.129Z,15.00
2022-12-06T10:02:10.662Z,14.40
2022-12-06T10:04:56.455Z,14.50
2022-12-06T10:07:56.406Z,14.60
2022-12-06T10:10:28.004Z,13.70
2022-12-06T10:13:16.056Z,13.50
2022-12-06T10:16:18.904Z,13.60
2022-12-06T10:19:09.699Z,13.70
2022-12-06T10:21:44.027Z,13.80
2022-12-06T10:24:30.117Z,13.90
2022-12-06T10:27:13.034Z,13.50
2022-12-06T10:29:56.731Z,13.10
2022-12-06T10:32:45.648Z,12.90
2022-12-06T10:35:19.003Z,12.80
2022-12-06T10:37:47.739Z,12.90
2022-12-06T10:40:49.040Z,12.80
2022-12-06T10:43:20.509Z,12.80
2022-12-06T10:46:16.068Z,12.90
2022-12-06T10:49:13.250Z,13.00
2022-12-06T10:51:46.156Z,13.10
2022-12-06T10:54:41.650Z,13.10
2022-12-06T10:57:19.231Z,13.20
2022-12-06T11:00:16.254Z,13.50
2022-12-06T11:03:12.890Z,13.70
2022-12-06T11:05:47.278Z,13.80
2022-12-06T11:08:22.248Z,13.80
2022-12-06T11:10:51.571Z,13.90
2022-12-06T11:13:43.309Z,14.00
2022-12-06T11:16:22.831Z,14.00
2022-12-06T11:18:52.060Z,14.20
2022-12-06T11:21:27.626Z,14.40
2022-12-06T11:24:28.924Z,14.60
2022-12-06T11:27:10.448Z,14.70
2022-12-06T11:29:38.455Z,14.90
2022-12-06T11:32:12.481Z,14.90
2022-12-06T11:34:56.028Z,14.80
2022-12-06T11:37:28.226Z,14.90
2022-12-06T11:40:26.067Z,14.80
2022-12-06T11:42:54.880Z,14.80
2022-12-06T11:45:27.305Z,14.80
2022-12-06T11:48:01.959Z,14.90
2022-12-06T11:50:33.015Z,15.00
2022-12-06T11:53:13.701Z,15.10
2022-12-06T11:55:44.667Z,15.20
2022-12-06T11:58:33.021Z,15.20
2022-12-06T12:01:03.343Z,15.30
2022-12-06T12:03:37.585Z,15.30
2022-12-06T12:06:26.449Z,15.30
2022-12-06T12:09:05.194Z,15.40
2022-12-06T12:11:37.641Z,15.50
2022-12-06T12:14:18.201Z,15.50
2022-12-06T12:16:50.737Z,15.50
2022-12-06T12:19:39.770Z,15.40
2022-12-06T12:22:31.564Z,15.40
2022-12-06T12:25:21.031Z,15.40
2022-12-06T12:27:53.569Z,15.40
2022-12-06T12:30:32.118Z,15.40
2022-12-06T12:33:06.402Z,15.40
2022-12-06T12:35:40.119Z,15.40
2022-12-06T12:38:10.301Z,15.40
2022-12-06T12:40:39.771Z,15.30
2022-12-06T12:43:13.477Z,15.30
2022-12-06T12:46:07.293Z,15.30
2022-12-06T12:48:36.960Z,15.30
2022-12-06T12:51:19.935Z,15.30
2022-12-06T12:53:49.793Z,15.40
2022-12-06T12:56:21.127Z,15.50
2022-12-06T12:58:55.096Z,15.50
2022-12-06T13:01:30.250Z,15.50
2022-12-06T13:04:18.967Z,15.40
2022-12-06T13:06:50.441Z,15.40
2022-12-06T13:09:49.504Z,15.50
2022-12-06T13:12:26.619Z,15.40
2022-12-06T13:15:02.902Z,15.40
2022-12-06T13:17:35.307Z,15.40
2022-12-06T13:20:05.032Z,15.40
2022-12-06T13:22:39.017Z,15.40
2022-12-06T13:25:08.350Z,15.50
2022-12-06T13:27:43.045Z,15.50
2022-12-06T13:30:23.690Z,15.50
2022-12-06T13:32:55.242Z,15.50
2022-12-06T13:35:26.052Z,15.50
2022-12-06T13:38:26.367Z,15.50
2022-12-06T13:41:00.750Z,15.50
2022-12-06T13:43:28.700Z,15.50
2022-12-06T13:46:14.419Z,15.50
2022-12-06T13:49:00.675Z,15.50
2022-12-06T13:51:31.846Z,15.40
2022-12-06T13:54:20.994Z,15.40
2022-12-06T13:56:49.066Z,15.30
2022-12-06T13:59:17.343Z,15.30
2022-12-06T14:01:53.734Z,15.30
2022-12-06T14:06:57.330Z,15.20
2022-12-06T14:09:26.755Z,15.20
2022-12-06T14:11:55.236Z,15.10
2022-12-06T14:14:25.208Z,15.10
2022-12-06T14:16:57.595Z,15.10
2022-12-06T14:19:29.146Z,15.10
2022-12-06T14:22:02.642Z,15.10
2022-12-06T14:24:32.805Z,15.00
2022-12-06T14:27:11.043Z,15.00
2022-12-06T14:29:42.829Z,15.00
2022-12-06T14:32:12.145Z,15.00
2022-12-06T14:34:40.193Z,15.00
2022-12-06T14:37:22.502Z,15.00
2022-12-06T14:39:53.890Z,14.90
2022-12-06T14:42:41.464Z,14.90
2022-12-06T14:45:17.102Z,14.90
2022-12-06T14:47:46.346Z,14.80
2022-12-06T14:50:30.404Z,14.80
2022-12-06T14:53:07.289Z,14.70
2022-12-06T14:55:58.827Z,14.70
2022-12-06T14:58:31.427Z,14.60
2022-12-06T15:01:07.214Z,14.50
2022-12-06T15:03:37.077Z,14.40
2022-12-06T15:06:12.607Z,14.30
2022-12-06T15:08:44.580Z,14.30
2022-12-06T15:11:13.254Z,14.20
2022-12-06T15:13:42.187Z,14.00
2022-12-06T15:16:10.159Z,14.00
2022-12-06T15:19:02.816Z,13.90
2022-12-06T15:21:31.308Z,13.80
2022-12-06T15:23:59.762Z,13.70
2022-12-06T15:26:27.924Z,13.60
2022-12-06T15:28:56.544Z,13.60
2022-12-06T15:31:27.479Z,13.60
2022-12-06T15:33:56.192Z,13.50
2022-12-06T15:36:55.924Z,13.40
2022-12-06T15:39:37.896Z,13.30
2022-12-06T15:42:20.664Z,13.30
2022-12-06T15:44:51.758Z,13.20
2022-12-06T15:47:45.159Z,13.30
2022-12-06T15:50:15.205Z,13.20
2022-12-06T15:52:43.160Z,13.10
2022-12-06T15:55:18.236Z,12.90
2022-12-06T15:57:46.152Z,12.80
2022-12-06T16:00:15.042Z,12.70
2022-12-06T16:02:43.579Z,12.60
2022-12-06T16:05:16.885Z,12.60
2022-12-06T16:07:44.772Z,12.50
2022-12-06T16:10:14.603Z,12.50
2022-12-06T16:13:05.436Z,12.50
2022-12-06T16:15:33.961Z,12.40
2022-12-06T16:18:01.884Z,12.40
2022-12-06T16:20:33.602Z,12.40
2022-12-06T16:23:25.551Z,12.40
2022-12-06T16:25:53.718Z,12.30
2022-12-06T16:28:21.990Z,12.30
2022-12-06T16:30:50.161Z,12.20
2022-12-06T16:33:21.242Z,12.20
2022-12-06T16:35:49.897Z,12.10
2022-12-06T16:38:18.431Z,12.00
2022-12-06T16:40:47.332Z,11.90
2022-12-06T16:43:15.432Z,11.80
2022-12-06T16:45:46.198Z,11.70
2022-12-06T16:48:20.225Z,11.70
2022-12-06T16:50:48.323Z,11.60
2022-12-06T16:53:16.761Z,11.60
2022-12-06T16:55:45.203Z,11.60
2022-12-06T16:58:13.926Z,11.50
2022-12-06T17:00:42.134Z,11.40
2022-12-06T17:03:14.635Z,11.40
2022-12-06T17:05:42.988Z,11.40
2022-12-06T17:08:11.572Z,11.30
2022-12-06T17:10:39.819Z,11.30
2022-12-06T17:13:08.217Z,11.20
2022-12-06T17:15:36.974Z,11.20
2022-12-06T17:18:05.625Z,11.10
2022-12-06T17:20:34.825Z,11.10
2022-12-06T17:23:03.407Z,11.10
2022-12-06T17:25:31.407Z,11.10
2022-12-06T17:27:59.346Z,11.00
2022-12-06T17:30:27.917Z,11.00
2022-12-06T17:32:55.865Z,10.90
2022-12-06T17:35:25.267Z,10.90
2022-12-06T17:37:55.796Z,10.80
2022-12-06T17:40:24.203Z,10.80
2022-12-06T17:43:01.708Z,10.80
2022-12-06T17:45:30.331Z,10.90
2022-12-06T17:47:59.338Z,11.00
2022-12-06T17:50:27.963Z,11.00
2022-12-06T17:52:56.370Z,10.90
2022-12-06T17:55:43.504Z,10.90
2022-12-06T18:00:40.886Z,10.70
2022-12-06T18:03:09.305Z,10.70
2022-12-06T18:05:39.682Z,10.70
2022-12-06T18:08:08.081Z,10.70
2022-12-06T18:10:36.130Z,10.60
2022-12-06T18:13:05.475Z,10.70
2022-12-06T18:15:39.827Z,10.50
2022-12-06T18:18:07.904Z,10.50
2022-12-06T18:20:35.824Z,10.30
2022-12-06T18:23:04.384Z,10.20
2022-12-06T18:25:32.592Z,10.10
2022-12-06T18:28:01.046Z,10.00
2022-12-06T18:30:29.553Z,10.10
2022-12-06T18:33:10.152Z,10.00
2022-12-06T18:35:38.416Z,10.00
2022-12-06T18:38:06.466Z,9.90
2022-12-06T18:40:34.892Z,9.80
2022-12-06T18:43:03.529Z,9.80
2022-12-06T18:45:31.574Z,9.70
2022-12-06T18:48:00.094Z,9.70
2022-12-06T18:50:28.804Z,9.70
2022-12-06T18:52:56.965Z,9.60
2022-12-06T18:55:25.722Z,9.50
2022-12-06T18:57:53.882Z,9.60
2022-12-06T19:00:22.314Z,9.70
2022-12-06T19:02:50.526Z,9.70
2022-12-06T19:05:32.898Z,9.70
2022-12-06T19:08:06.906Z,9.60
2022-12-06T19:10:36.344Z,9.60
2022-12-06T19:13:06.110Z,9.50
2022-12-06T19:15:34.205Z,9.50
2022-12-06T19:18:02.451Z,9.40
2022-12-06T19:20:30.744Z,9.30
2022-12-06T19:23:13.777Z,9.30
2022-12-06T19:25:42.436Z,9.30
2022-12-06T19:28:11.545Z,9.30
2022-12-06T19:30:40.907Z,9.40
2022-12-06T19:33:09.404Z,9.50
2022-12-06T19:35:38.129Z,9.50
2022-12-06T19:38:07.175Z,9.40
2022-12-06T19:40:36.199Z,9.40
2022-12-06T19:43:22.873Z,9.40
2022-12-06T19:45:51.157Z,9.30
2022-12-06T19:48:21.508Z,9.20
2022-12-06T19:50:49.446Z,9.10
2022-12-06T19:53:17.900Z,9.00
2022-12-06T19:55:47.251Z,9.00
2022-12-06T19:58:15.335Z,9.00
2022-12-06T20:00:44.027Z,9.00
2022-12-06T20:03:12.134Z,9.00
2022-12-06T20:05:40.179Z,9.00
2022-12-06T20:08:08.567Z,9.00
2022-12-06T20:10:37.640Z,9.00
2022-12-06T20:13:08.978Z,8.90
2022-12-06T20:15:37.685Z,9.00
2022-12-06T20:18:05.746Z,9.00
2022-12-06T20:20:33.651Z,9.10
2022-12-06T20:23:04.941Z,9.10
2022-12-06T20:25:37.118Z,9.00
2022-12-06T20:28:10.372Z,9.00
2022-12-06T20:30:41.865Z,9.00
2022-12-06T20:33:10.090Z,9.00
2022-12-06T20:35:38.947Z,9.00
2022-12-06T20:38:07.419Z,9.10
2022-12-06T20:40:35.967Z,9.00
2022-12-06T20:43:04.596Z,8.90
2022-12-06T20:45:32.530Z,8.70
2022-12-06T20:48:00.517Z,8.70
2022-12-06T20:50:28.458Z,8.60
2022-12-06T20:52:56.978Z,8.60
2022-12-06T20:55:24.845Z,8.50
2022-12-06T20:57:52.833Z,8.40
2022-12-06T21:00:21.629Z,8.50
2022-12-06T21:02:50.417Z,8.40
2022-12-06T21:05:19.183Z,8.40
2022-12-06T21:07:47.814Z,8.40
2022-12-06T21:12:44.372Z,8.40
2022-12-06T21:15:12.379Z,8.40
2022-12-06T21:17:41.312Z,8.40
2022-12-06T21:20:09.566Z,8.40
2022-12-06T21:22:37.556Z,8.30
2022-12-06T21:25:07.542Z,8.30
2022-12-06T21:27:35.717Z,8.30
2022-12-06T21:30:04.713Z,8.20
2022-12-06T21:32:32.744Z,8.10
2022-12-06T21:35:01.120Z,8.10
2022-12-06T21:37:29.608Z,8.10
2022-12-06T21:39:57.831Z,8.20
